sensor_id;sensor_type;location;lat;lon;timestamp;pressure;altitude;pressure_sealevel;temperature
65823;BMP180;52585;47.566;19.056;2022-09-27T00:01:14;99165.40;;;15.80
65823;BMP180;52585;47.566;19.056;2022-09-27T00:03:42;99162.60;;;15.80
65823;BMP180;52585;47.566;19.056;2022-09-27T00:06:15;99161.60;;;15.80
65823;BMP180;52585;47.566;19.056;2022-09-27T00:08:44;99163.20;;;15.80
65823;BMP180;52585;47.566;19.056;2022-09-27T00:11:38;99155.80;;;15.80
65823;BMP180;52585;47.566;19.056;2022-09-27T00:14:08;99153.00;;;15.80
65823;BMP180;52585;47.566;19.056;2022-09-27T00:16:41;99151.00;;;15.80
65823;BMP180;52585;47.566;19.056;2022-09-27T00:19:16;99149.20;;;15.80
65823;BMP180;52585;47.566;19.056;2022-09-27T00:21:45;99151.40;;;15.80
65823;BMP180;52585;47.566;19.056;2022-09-27T00:24:14;99150.00;;;15.80
65823;BMP180;52585;47.566;19.056;2022-09-27T00:26:43;99150.20;;;15.80
65823;BMP180;52585;47.566;19.056;2022-09-27T00:29:10;99147.80;;;15.80
65823;BMP180;52585;47.566;19.056;2022-09-27T00:31:37;99141.80;;;15.76
65823;BMP180;52585;47.566;19.056;2022-09-27T00:34:06;99140.20;;;15.78
65823;BMP180;52585;47.566;19.056;2022-09-27T00:36:34;99137.40;;;15.70
65823;BMP180;52585;47.566;19.056;2022-09-27T00:39:00;99136.20;;;15.74
65823;BMP180;52585;47.566;19.056;2022-09-27T00:41:33;99130.00;;;15.74
65823;BMP180;52585;47.566;19.056;2022-09-27T00:53:00;99125.00;;;15.70
65823;BMP180;52585;47.566;19.056;2022-09-27T00:55:36;99125.80;;;15.70
65823;BMP180;52585;47.566;19.056;2022-09-27T00:58:04;99125.40;;;15.70
65823;BMP180;52585;47.566;19.056;2022-09-27T01:00:31;99121.00;;;15.70
65823;BMP180;52585;47.566;19.056;2022-09-27T01:02:58;99117.40;;;15.70
65823;BMP180;52585;47.566;19.056;2022-09-27T01:05:29;99114.80;;;15.70
65823;BMP180;52585;47.566;19.056;2022-09-27T01:07:57;99112.60;;;15.70
65823;BMP180;52585;47.566;19.056;2022-09-27T01:10:33;99106.80;;;15.70
65823;BMP180;52585;47.566;19.056;2022-09-27T01:13:25;99108.20;;;15.70
65823;BMP180;52585;47.566;19.056;2022-09-27T01:22:13;99117.20;;;15.70
65823;BMP180;52585;47.566;19.056;2022-09-27T01:25:28;99108.60;;;15.70
65823;BMP180;52585;47.566;19.056;2022-09-27T01:40:13;99082.60;;;15.70
65823;BMP180;52585;47.566;19.056;2022-09-27T01:43:05;99078.00;;;15.70
65823;BMP180;52585;47.566;19.056;2022-09-27T01:45:58;99077.00;;;15.66
65823;BMP180;52585;47.566;19.056;2022-09-27T01:48:43;99078.60;;;15.60
65823;BMP180;52585;47.566;19.056;2022-09-27T01:51:39;99070.00;;;15.60
65823;BMP180;52585;47.566;19.056;2022-09-27T01:54:19;99067.20;;;15.60
65823;BMP180;52585;47.566;19.056;2022-09-27T01:56:51;99060.80;;;15.60
65823;BMP180;52585;47.566;19.056;2022-09-27T01:59:22;99057.20;;;15.60
65823;BMP180;52585;47.566;19.056;2022-09-27T02:01:59;99049.80;;;15.60
65823;BMP180;52585;47.566;19.056;2022-09-27T02:04:32;99042.40;;;15.58
65823;BMP180;52585;47.566;19.056;2022-09-27T02:07:19;99044.00;;;15.50
65823;BMP180;52585;47.566;19.056;2022-09-27T02:10:00;99047.80;;;15.50
65823;BMP180;52585;47.566;19.056;2022-09-27T02:12:37;99038.20;;;15.50
65823;BMP180;52585;47.566;19.056;2022-09-27T02:15:10;99038.40;;;15.50
65823;BMP180;52585;47.566;19.056;2022-09-27T02:17:57;99043.00;;;15.50
65823;BMP180;52585;47.566;19.056;2022-09-27T02:20:48;99052.20;;;15.50
65823;BMP180;52585;47.566;19.056;2022-09-27T02:23:42;99048.20;;;15.50
65823;BMP180;52585;47.566;19.056;2022-09-27T02:26:40;99048.40;;;15.50
65823;BMP180;52585;47.566;19.056;2022-09-27T02:29:17;99049.20;;;15.42
65823;BMP180;52585;47.566;19.056;2022-09-27T02:31:47;99053.00;;;15.40
65823;BMP180;52585;47.566;19.056;2022-09-27T02:34:27;99048.80;;;15.40
65823;BMP180;52585;47.566;19.056;2022-09-27T02:36:54;99040.80;;;15.40
65823;BMP180;52585;47.566;19.056;2022-09-27T02:39:23;99042.80;;;15.36
65823;BMP180;52585;47.566;19.056;2022-09-27T02:41:50;99041.80;;;15.30
65823;BMP180;52585;47.566;19.056;2022-09-27T02:44:18;99043.20;;;15.30
65823;BMP180;52585;47.566;19.056;2022-09-27T02:58:53;99033.20;;;15.20
65823;BMP180;52585;47.566;19.056;2022-09-27T03:01:48;99027.20;;;15.20
65823;BMP180;52585;47.566;19.056;2022-09-27T03:04:47;99026.80;;;15.20
65823;BMP180;52585;47.566;19.056;2022-09-27T03:07:19;99023.80;;;15.20
65823;BMP180;52585;47.566;19.056;2022-09-27T03:09:50;99015.00;;;15.20
65823;BMP180;52585;47.566;19.056;2022-09-27T03:12:20;99008.60;;;15.20
65823;BMP180;52585;47.566;19.056;2022-09-27T03:14:58;99011.20;;;15.20
65823;BMP180;52585;47.566;19.056;2022-09-27T03:17:26;99007.40;;;15.18
65823;BMP180;52585;47.566;19.056;2022-09-27T03:19:53;99011.40;;;15.20
65823;BMP180;52585;47.566;19.056;2022-09-27T03:22:21;99012.40;;;15.20
65823;BMP180;52585;47.566;19.056;2022-09-27T03:24:48;99019.00;;;15.20
65823;BMP180;52585;47.566;19.056;2022-09-27T03:27:15;99012.40;;;15.20
65823;BMP180;52585;47.566;19.056;2022-09-27T03:29:42;99011.20;;;15.20
65823;BMP180;52585;47.566;19.056;2022-09-27T03:32:08;99012.40;;;15.20
65823;BMP180;52585;47.566;19.056;2022-09-27T03:34:35;99013.80;;;15.20
65823;BMP180;52585;47.566;19.056;2022-09-27T03:37:02;99003.60;;;15.20
65823;BMP180;52585;47.566;19.056;2022-09-27T03:39:31;99004.60;;;15.20
65823;BMP180;52585;47.566;19.056;2022-09-27T03:41:58;99006.00;;;15.20
65823;BMP180;52585;47.566;19.056;2022-09-27T03:44:25;98999.80;;;15.20
65823;BMP180;52585;47.566;19.056;2022-09-27T03:46:51;99001.80;;;15.28
65823;BMP180;52585;47.566;19.056;2022-09-27T03:49:18;98998.40;;;15.30
65823;BMP180;52585;47.566;19.056;2022-09-27T03:51:46;99001.00;;;15.30
65823;BMP180;52585;47.566;19.056;2022-09-27T03:54:14;99000.00;;;15.30
65823;BMP180;52585;47.566;19.056;2022-09-27T03:56:42;98993.40;;;15.30
65823;BMP180;52585;47.566;19.056;2022-09-27T03:59:10;98993.00;;;15.30
65823;BMP180;52585;47.566;19.056;2022-09-27T04:01:37;98985.80;;;15.30
65823;BMP180;52585;47.566;19.056;2022-09-27T04:04:06;98987.80;;;15.30
65823;BMP180;52585;47.566;19.056;2022-09-27T04:06:33;98990.40;;;15.30
65823;BMP180;52585;47.566;19.056;2022-09-27T04:09:02;98993.80;;;15.30
65823;BMP180;52585;47.566;19.056;2022-09-27T04:11:29;98992.60;;;15.30
65823;BMP180;52585;47.566;19.056;2022-09-27T04:13:57;98998.20;;;15.30
65823;BMP180;52585;47.566;19.056;2022-09-27T04:16:25;98998.20;;;15.30
65823;BMP180;52585;47.566;19.056;2022-09-27T04:18:52;98989.00;;;15.30
65823;BMP180;52585;47.566;19.056;2022-09-27T04:21:19;98989.60;;;15.30
65823;BMP180;52585;47.566;19.056;2022-09-27T04:23:46;98989.00;;;15.30
65823;BMP180;52585;47.566;19.056;2022-09-27T04:26:12;98988.00;;;15.30
65823;BMP180;52585;47.566;19.056;2022-09-27T04:28:41;98988.80;;;15.30
65823;BMP180;52585;47.566;19.056;2022-09-27T04:31:08;98986.80;;;15.30
65823;BMP180;52585;47.566;19.056;2022-09-27T04:33:37;98981.40;;;15.30
65823;BMP180;52585;47.566;19.056;2022-09-27T04:36:04;98978.00;;;15.30
65823;BMP180;52585;47.566;19.056;2022-09-27T04:38:50;98976.00;;;15.30
65823;BMP180;52585;47.566;19.056;2022-09-27T04:41:16;98972.60;;;15.30
65823;BMP180;52585;47.566;19.056;2022-09-27T04:43:42;98977.00;;;15.30
65823;BMP180;52585;47.566;19.056;2022-09-27T04:46:09;98980.40;;;15.30
65823;BMP180;52585;47.566;19.056;2022-09-27T04:48:37;98974.20;;;15.32
65823;BMP180;52585;47.566;19.056;2022-09-27T04:51:06;98972.00;;;15.30
65823;BMP180;52585;47.566;19.056;2022-09-27T04:53:32;98976.20;;;15.40
65823;BMP180;52585;47.566;19.056;2022-09-27T04:55:59;98973.40;;;15.38
65823;BMP180;52585;47.566;19.056;2022-09-27T04:58:27;98970.80;;;15.36
65823;BMP180;52585;47.566;19.056;2022-09-27T05:00:55;98974.00;;;15.34
65823;BMP180;52585;47.566;19.056;2022-09-27T05:03:23;98969.60;;;15.36
65823;BMP180;52585;47.566;19.056;2022-09-27T05:05:51;98972.60;;;15.40
65823;BMP180;52585;47.566;19.056;2022-09-27T05:08:17;98970.60;;;15.40
65823;BMP180;52585;47.566;19.056;2022-09-27T05:10:45;98964.40;;;15.40
65823;BMP180;52585;47.566;19.056;2022-09-27T05:13:13;98961.20;;;15.40
65823;BMP180;52585;47.566;19.056;2022-09-27T05:15:40;98954.00;;;15.40
65823;BMP180;52585;47.566;19.056;2022-09-27T05:18:07;98953.40;;;15.40
65823;BMP180;52585;47.566;19.056;2022-09-27T05:20:36;98950.40;;;15.40
65823;BMP180;52585;47.566;19.056;2022-09-27T05:23:05;98954.20;;;15.40
65823;BMP180;52585;47.566;19.056;2022-09-27T05:25:32;98959.80;;;15.40
65823;BMP180;52585;47.566;19.056;2022-09-27T05:28:01;98960.40;;;15.40
65823;BMP180;52585;47.566;19.056;2022-09-27T05:30:28;98954.40;;;15.40
65823;BMP180;52585;47.566;19.056;2022-09-27T05:32:56;98952.20;;;15.40
65823;BMP180;52585;47.566;19.056;2022-09-27T05:35:24;98949.40;;;15.46
65823;BMP180;52585;47.566;19.056;2022-09-27T05:37:58;98951.40;;;15.50
65823;BMP180;52585;47.566;19.056;2022-09-27T05:40:26;98946.40;;;15.50
65823;BMP180;52585;47.566;19.056;2022-09-27T05:42:55;98944.20;;;15.50
65823;BMP180;52585;47.566;19.056;2022-09-27T05:45:24;98932.40;;;15.50
65823;BMP180;52585;47.566;19.056;2022-09-27T05:47:59;98921.00;;;15.50
65823;BMP180;52585;47.566;19.056;2022-09-27T05:50:26;98921.20;;;15.50
65823;BMP180;52585;47.566;19.056;2022-09-27T05:52:53;98917.60;;;15.50
65823;BMP180;52585;47.566;19.056;2022-09-27T05:55:20;98920.00;;;15.50
65823;BMP180;52585;47.566;19.056;2022-09-27T05:57:59;98914.60;;;15.50
65823;BMP180;52585;47.566;19.056;2022-09-27T06:00:27;98917.40;;;15.50
65823;BMP180;52585;47.566;19.056;2022-09-27T06:03:00;98915.20;;;15.50
65823;BMP180;52585;47.566;19.056;2022-09-27T06:05:30;98923.20;;;15.50
65823;BMP180;52585;47.566;19.056;2022-09-27T06:08:07;98925.20;;;15.50
65823;BMP180;52585;47.566;19.056;2022-09-27T06:10:34;98939.80;;;15.50
65823;BMP180;52585;47.566;19.056;2022-09-27T06:13:13;98944.80;;;15.58
65823;BMP180;52585;47.566;19.056;2022-09-27T06:15:43;98949.40;;;15.60
65823;BMP180;52585;47.566;19.056;2022-09-27T06:18:14;98950.80;;;15.60
65823;BMP180;52585;47.566;19.056;2022-09-27T08:14:08;98927.40;;;15.90
65823;BMP180;52585;47.566;19.056;2022-09-27T08:16:36;98918.20;;;16.00
65823;BMP180;52585;47.566;19.056;2022-09-27T08:19:03;98913.40;;;16.00
65823;BMP180;52585;47.566;19.056;2022-09-27T08:21:29;98906.40;;;16.00
65823;BMP180;52585;47.566;19.056;2022-09-27T08:23:56;98913.20;;;16.10
65823;BMP180;52585;47.566;19.056;2022-09-27T08:26:27;98916.60;;;16.20
65823;BMP180;52585;47.566;19.056;2022-09-27T08:28:55;98918.40;;;16.32
65823;BMP180;52585;47.566;19.056;2022-09-27T08:31:21;98917.40;;;16.40
65823;BMP180;52585;47.566;19.056;2022-09-27T08:33:50;98927.00;;;16.40
65823;BMP180;52585;47.566;19.056;2022-09-27T08:36:19;98935.80;;;16.40
65823;BMP180;52585;47.566;19.056;2022-09-27T08:38:52;98931.60;;;16.40
65823;BMP180;52585;47.566;19.056;2022-09-27T08:41:51;98921.40;;;16.40
65823;BMP180;52585;47.566;19.056;2022-09-27T08:50:19;98906.00;;;16.40
65823;BMP180;52585;47.566;19.056;2022-09-27T08:52:54;98907.60;;;16.40
65823;BMP180;52585;47.566;19.056;2022-09-27T08:55:43;98900.20;;;16.40
65823;BMP180;52585;47.566;19.056;2022-09-27T08:58:28;98898.40;;;16.40
65823;BMP180;52585;47.566;19.056;2022-09-27T09:01:02;98903.60;;;16.40
65823;BMP180;52585;47.566;19.056;2022-09-27T09:03:37;98902.20;;;16.40
65823;BMP180;52585;47.566;19.056;2022-09-27T09:09:26;98903.00;;;16.40
65823;BMP180;52585;47.566;19.056;2022-09-27T09:15:58;98910.60;;;16.40
65823;BMP180;52585;47.566;19.056;2022-09-27T09:21:32;98887.20;;;16.68
65823;BMP180;52585;47.566;19.056;2022-09-27T09:30:15;98873.00;;;16.60
65823;BMP180;52585;47.566;19.056;2022-09-27T09:35:22;98865.80;;;16.60
65823;BMP180;52585;47.566;19.056;2022-09-27T09:38:00;98856.60;;;16.60
65823;BMP180;52585;47.566;19.056;2022-09-27T09:40:31;98856.00;;;16.60
65823;BMP180;52585;47.566;19.056;2022-09-27T09:43:20;98848.60;;;16.60
65823;BMP180;52585;47.566;19.056;2022-09-27T09:46:19;98841.00;;;16.60
65823;BMP180;52585;47.566;19.056;2022-09-27T09:51:59;98852.80;;;16.66
65823;BMP180;52585;47.566;19.056;2022-09-27T09:54:39;98852.40;;;16.70
65823;BMP180;52585;47.566;19.056;2022-09-27T09:57:32;98859.40;;;16.80
65823;BMP180;52585;47.566;19.056;2022-09-27T10:00:17;98855.60;;;16.88
65823;BMP180;52585;47.566;19.056;2022-09-27T10:02:46;98847.60;;;16.90
65823;BMP180;52585;47.566;19.056;2022-09-27T10:05:20;98843.00;;;17.00
65823;BMP180;52585;47.566;19.056;2022-09-27T10:07:49;98850.40;;;17.00
65823;BMP180;52585;47.566;19.056;2022-09-27T10:10:19;98842.80;;;17.00
65823;BMP180;52585;47.566;19.056;2022-09-27T10:12:49;98838.00;;;17.00
65823;BMP180;52585;47.566;19.056;2022-09-27T10:15:25;98836.40;;;17.10
65823;BMP180;52585;47.566;19.056;2022-09-27T10:17:55;98836.20;;;17.10
65823;BMP180;52585;47.566;19.056;2022-09-27T10:20:45;98837.20;;;17.12
65823;BMP180;52585;47.566;19.056;2022-09-27T10:23:17;98834.20;;;17.20
65823;BMP180;52585;47.566;19.056;2022-09-27T10:25:57;98832.40;;;17.20
65823;BMP180;52585;47.566;19.056;2022-09-27T10:50:29;98815.00;;;16.80
65823;BMP180;52585;47.566;19.056;2022-09-27T10:53:19;98812.80;;;16.80
65823;BMP180;52585;47.566;19.056;2022-09-27T10:55:51;98816.80;;;16.80
65823;BMP180;52585;47.566;19.056;2022-09-27T10:58:36;98816.80;;;16.82
65823;BMP180;52585;47.566;19.056;2022-09-27T11:01:07;98811.40;;;16.90
65823;BMP180;52585;47.566;19.056;2022-09-27T11:03:46;98809.80;;;17.00
65823;BMP180;52585;47.566;19.056;2022-09-27T11:06:28;98803.40;;;17.00
65823;BMP180;52585;47.566;19.056;2022-09-27T11:09:21;98799.20;;;17.10
65823;BMP180;52585;47.566;19.056;2022-09-27T11:12:16;98800.40;;;17.12
65823;BMP180;52585;47.566;19.056;2022-09-27T11:15:16;98798.20;;;17.20
65823;BMP180;52585;47.566;19.056;2022-09-27T11:18:00;98797.80;;;17.20
65823;BMP180;52585;47.566;19.056;2022-09-27T11:20:50;98792.20;;;17.20
65823;BMP180;52585;47.566;19.056;2022-09-27T11:26:43;98781.40;;;17.20
65823;BMP180;52585;47.566;19.056;2022-09-27T11:35:32;98770.60;;;17.30
65823;BMP180;52585;47.566;19.056;2022-09-27T11:50:19;98742.80;;;17.30
65823;BMP180;52585;47.566;19.056;2022-09-27T11:53:16;98737.60;;;17.30
65823;BMP180;52585;47.566;19.056;2022-09-27T12:01:55;98730.80;;;17.38
65823;BMP180;52585;47.566;19.056;2022-09-27T12:04:47;98727.40;;;17.38
65823;BMP180;52585;47.566;19.056;2022-09-27T12:08:14;98719.00;;;17.38
65823;BMP180;52585;47.566;19.056;2022-09-27T12:10:49;98715.80;;;17.32
65823;BMP180;52585;47.566;19.056;2022-09-27T12:13:30;98713.60;;;17.30
65823;BMP180;52585;47.566;19.056;2022-09-27T12:15:58;98706.60;;;17.36
65823;BMP180;52585;47.566;19.056;2022-09-27T12:18:34;98703.00;;;17.36
65823;BMP180;52585;47.566;19.056;2022-09-27T12:21:05;98696.60;;;17.40
65823;BMP180;52585;47.566;19.056;2022-09-27T12:23:42;98697.40;;;17.40
65823;BMP180;52585;47.566;19.056;2022-09-27T12:26:28;98693.60;;;17.40
65823;BMP180;52585;47.566;19.056;2022-09-27T12:29:25;98697.20;;;17.40
65823;BMP180;52585;47.566;19.056;2022-09-27T12:32:12;98695.40;;;17.40
65823;BMP180;52585;47.566;19.056;2022-09-27T12:35:00;98692.00;;;17.42
65823;BMP180;52585;47.566;19.056;2022-09-27T12:37:34;98688.60;;;17.44
65823;BMP180;52585;47.566;19.056;2022-09-27T12:40:18;98689.60;;;17.50
65823;BMP180;52585;47.566;19.056;2022-09-27T12:43:01;98687.20;;;17.50
65823;BMP180;52585;47.566;19.056;2022-09-27T12:51:13;98680.40;;;17.40
65823;BMP180;52585;47.566;19.056;2022-09-27T12:54:13;98669.60;;;17.40
65823;BMP180;52585;47.566;19.056;2022-09-27T13:00:17;98664.80;;;17.40
65823;BMP180;52585;47.566;19.056;2022-09-27T13:03:22;98665.00;;;17.40
65823;BMP180;52585;47.566;19.056;2022-09-27T13:08:58;98669.40;;;17.40
65823;BMP180;52585;47.566;19.056;2022-09-27T13:14:24;98654.20;;;17.40
65823;BMP180;52585;47.566;19.056;2022-09-27T13:16:51;98650.40;;;17.40
65823;BMP180;52585;47.566;19.056;2022-09-27T13:22:54;98655.20;;;17.40
65823;BMP180;52585;47.566;19.056;2022-09-27T13:24:56;98658.60;;;17.40
65823;BMP180;52585;47.566;19.056;2022-09-27T13:32:35;98653.20;;;17.40
65823;BMP180;52585;47.566;19.056;2022-09-27T13:35:19;98652.00;;;17.42
65823;BMP180;52585;47.566;19.056;2022-09-27T13:37:53;98649.80;;;17.42
65823;BMP180;52585;47.566;19.056;2022-09-27T13:40:32;98648.20;;;17.40
65823;BMP180;52585;47.566;19.056;2022-09-27T13:45:55;98644.00;;;17.40
65823;BMP180;52585;47.566;19.056;2022-09-27T13:48:38;98645.60;;;17.44
65823;BMP180;52585;47.566;19.056;2022-09-27T13:57:00;98638.00;;;17.50
65823;BMP180;52585;47.566;19.056;2022-09-27T13:59:42;98632.20;;;17.48
65823;BMP180;52585;47.566;19.056;2022-09-27T14:02:30;98626.60;;;17.46
65823;BMP180;52585;47.566;19.056;2022-09-27T14:05:00;98623.60;;;17.48
65823;BMP180;52585;47.566;19.056;2022-09-27T14:07:40;98627.00;;;17.48
65823;BMP180;52585;47.566;19.056;2022-09-27T14:10:14;98645.80;;;17.40
65823;BMP180;52585;47.566;19.056;2022-09-27T14:12:49;98657.60;;;17.42
65823;BMP180;52585;47.566;19.056;2022-09-27T14:15:22;98643.60;;;17.44
65823;BMP180;52585;47.566;19.056;2022-09-27T14:17:49;98670.80;;;17.40
65823;BMP180;52585;47.566;19.056;2022-09-27T14:20:41;98698.40;;;17.40
65823;BMP180;52585;47.566;19.056;2022-09-27T14:23:33;98689.60;;;17.40
65823;BMP180;52585;47.566;19.056;2022-09-27T14:25:59;98693.20;;;17.40
65823;BMP180;52585;47.566;19.056;2022-09-27T14:28:30;98697.40;;;17.30
65823;BMP180;52585;47.566;19.056;2022-09-27T14:31:14;98706.40;;;17.30
65823;BMP180;52585;47.566;19.056;2022-09-27T14:33:43;98700.00;;;17.20
65823;BMP180;52585;47.566;19.056;2022-09-27T14:36:33;98690.40;;;17.20
65823;BMP180;52585;47.566;19.056;2022-09-27T14:39:33;98693.40;;;17.16
65823;BMP180;52585;47.566;19.056;2022-09-27T14:42:05;98692.80;;;17.10
65823;BMP180;52585;47.566;19.056;2022-09-27T14:44:43;98698.00;;;17.10
65823;BMP180;52585;47.566;19.056;2022-09-27T14:47:24;98700.40;;;17.10
65823;BMP180;52585;47.566;19.056;2022-09-27T14:52:27;98714.80;;;17.00
65823;BMP180;52585;47.566;19.056;2022-09-27T14:55:17;98710.20;;;17.00
65823;BMP180;52585;47.566;19.056;2022-09-27T14:57:52;98708.20;;;17.00
65823;BMP180;52585;47.566;19.056;2022-09-27T15:00:23;98712.00;;;17.00
65823;BMP180;52585;47.566;19.056;2022-09-27T15:02:53;98711.00;;;16.96
65823;BMP180;52585;47.566;19.056;2022-09-27T15:05:28;98720.00;;;16.90
65823;BMP180;52585;47.566;19.056;2022-09-27T15:07:55;98720.20;;;16.90
65823;BMP180;52585;47.566;19.056;2022-09-27T15:10:27;98724.80;;;16.88
65823;BMP180;52585;47.566;19.056;2022-09-27T15:12:57;98729.40;;;16.88
65823;BMP180;52585;47.566;19.056;2022-09-27T15:15:35;98728.20;;;16.82
65823;BMP180;52585;47.566;19.056;2022-09-27T15:18:43;98731.80;;;16.80
65823;BMP180;52585;47.566;19.056;2022-09-27T15:21:28;98735.40;;;16.80
65823;BMP180;52585;47.566;19.056;2022-09-27T15:23:55;98736.40;;;16.80
65823;BMP180;52585;47.566;19.056;2022-09-27T15:26:38;98735.60;;;16.80
65823;BMP180;52585;47.566;19.056;2022-09-27T15:29:04;98733.20;;;16.74
65823;BMP180;52585;47.566;19.056;2022-09-27T15:31:34;98734.40;;;16.70
65823;BMP180;52585;47.566;19.056;2022-09-27T15:34:01;98732.60;;;16.70
65823;BMP180;52585;47.566;19.056;2022-09-27T15:36:57;98734.80;;;16.70
65823;BMP180;52585;47.566;19.056;2022-09-27T15:39:38;98743.40;;;16.60
65823;BMP180;52585;47.566;19.056;2022-09-27T15:42:13;98749.00;;;16.60
65823;BMP180;52585;47.566;19.056;2022-09-27T15:44:53;98756.00;;;16.60
65823;BMP180;52585;47.566;19.056;2022-09-27T15:53:03;98753.40;;;16.50
65823;BMP180;52585;47.566;19.056;2022-09-27T15:55:35;98759.40;;;16.40
65823;BMP180;52585;47.566;19.056;2022-09-27T15:58:30;98762.40;;;16.40
65823;BMP180;52585;47.566;19.056;2022-09-27T16:00:59;98769.20;;;16.30
65823;BMP180;52585;47.566;19.056;2022-09-27T16:03:30;98770.60;;;16.30
65823;BMP180;52585;47.566;19.056;2022-09-27T16:05:58;98777.60;;;16.30
65823;BMP180;52585;47.566;19.056;2022-09-27T16:08:26;98775.00;;;16.30
65823;BMP180;52585;47.566;19.056;2022-09-27T16:10:57;98771.60;;;16.22
65823;BMP180;52585;47.566;19.056;2022-09-27T16:13:24;98773.20;;;16.20
65823;BMP180;52585;47.566;19.056;2022-09-27T16:15:51;98771.20;;;16.20
65823;BMP180;52585;47.566;19.056;2022-09-27T16:18:17;98775.20;;;16.20
65823;BMP180;52585;47.566;19.056;2022-09-27T16:20:43;98778.40;;;16.10
65823;BMP180;52585;47.566;19.056;2022-09-27T16:23:09;98785.00;;;16.10
65823;BMP180;52585;47.566;19.056;2022-09-27T16:25:35;98787.60;;;16.10
65823;BMP180;52585;47.566;19.056;2022-09-27T16:28:02;98792.40;;;16.08
65823;BMP180;52585;47.566;19.056;2022-09-27T16:30:29;98794.40;;;16.02
65823;BMP180;52585;47.566;19.056;2022-09-27T16:32:56;98797.80;;;16.00
65823;BMP180;52585;47.566;19.056;2022-09-27T16:35:24;98800.00;;;16.00
65823;BMP180;52585;47.566;19.056;2022-09-27T16:37:50;98796.80;;;16.00
65823;BMP180;52585;47.566;19.056;2022-09-27T16:40:16;98796.80;;;15.94
65823;BMP180;52585;47.566;19.056;2022-09-27T16:42:43;98788.60;;;15.90
65823;BMP180;52585;47.566;19.056;2022-09-27T16:45:10;98784.40;;;15.90
65823;BMP180;52585;47.566;19.056;2022-09-27T16:47:36;98786.80;;;15.90
65823;BMP180;52585;47.566;19.056;2022-09-27T16:50:03;98790.40;;;15.90
65823;BMP180;52585;47.566;19.056;2022-09-27T16:52:48;98803.00;;;15.90
65823;BMP180;52585;47.566;19.056;2022-09-27T16:55:18;98806.20;;;15.90
65823;BMP180;52585;47.566;19.056;2022-09-27T16:57:49;98809.60;;;15.80
65823;BMP180;52585;47.566;19.056;2022-09-27T17:00:17;98812.00;;;15.82
65823;BMP180;52585;47.566;19.056;2022-09-27T17:02:45;98804.20;;;15.80
65823;BMP180;52585;47.566;19.056;2022-09-27T17:05:13;98815.00;;;15.80
65823;BMP180;52585;47.566;19.056;2022-09-27T17:07:39;98819.20;;;15.80
65823;BMP180;52585;47.566;19.056;2022-09-27T17:10:06;98822.80;;;15.80
65823;BMP180;52585;47.566;19.056;2022-09-27T17:12:33;98827.20;;;15.80
65823;BMP180;52585;47.566;19.056;2022-09-27T17:14:58;98825.60;;;15.80
65823;BMP180;52585;47.566;19.056;2022-09-27T17:17:25;98824.00;;;15.88
65823;BMP180;52585;47.566;19.056;2022-09-27T17:19:51;98825.40;;;15.90
65823;BMP180;52585;47.566;19.056;2022-09-27T17:22:17;98831.00;;;15.90
65823;BMP180;52585;47.566;19.056;2022-09-27T17:24:42;98831.80;;;15.80
65823;BMP180;52585;47.566;19.056;2022-09-27T17:27:08;98834.40;;;15.80
65823;BMP180;52585;47.566;19.056;2022-09-27T17:29:34;98832.80;;;15.82
65823;BMP180;52585;47.566;19.056;2022-09-27T17:31:59;98835.00;;;15.80
65823;BMP180;52585;47.566;19.056;2022-09-27T17:34:25;98832.20;;;15.80
65823;BMP180;52585;47.566;19.056;2022-09-27T17:36:52;98839.80;;;15.86
65823;BMP180;52585;47.566;19.056;2022-09-27T17:39:20;98848.00;;;15.90
65823;BMP180;52585;47.566;19.056;2022-09-27T17:41:49;98845.20;;;15.90
65823;BMP180;52585;47.566;19.056;2022-09-27T17:44:17;98843.80;;;15.90
65823;BMP180;52585;47.566;19.056;2022-09-27T17:46:44;98843.80;;;15.90
65823;BMP180;52585;47.566;19.056;2022-09-27T17:49:12;98842.80;;;15.84
65823;BMP180;52585;47.566;19.056;2022-09-27T17:51:57;98843.00;;;15.82
65823;BMP180;52585;47.566;19.056;2022-09-27T17:54:24;98844.00;;;15.80
65823;BMP180;52585;47.566;19.056;2022-09-27T17:56:52;98840.60;;;15.80
65823;BMP180;52585;47.566;19.056;2022-09-27T17:59:18;98840.60;;;15.80
65823;BMP180;52585;47.566;19.056;2022-09-27T18:01:45;98848.20;;;15.80
65823;BMP180;52585;47.566;19.056;2022-09-27T18:04:15;98855.00;;;15.80
65823;BMP180;52585;47.566;19.056;2022-09-27T18:06:44;98852.40;;;15.78
65823;BMP180;52585;47.566;19.056;2022-09-27T18:09:13;98854.60;;;15.74
65823;BMP180;52585;47.566;19.056;2022-09-27T18:11:39;98854.20;;;15.70
65823;BMP180;52585;47.566;19.056;2022-09-27T18:14:06;98854.00;;;15.70
65823;BMP180;52585;47.566;19.056;2022-09-27T18:16:36;98859.60;;;15.70
65823;BMP180;52585;47.566;19.056;2022-09-27T18:19:06;98856.20;;;15.70
65823;BMP180;52585;47.566;19.056;2022-09-27T18:21:34;98852.60;;;15.70
65823;BMP180;52585;47.566;19.056;2022-09-27T18:24:01;98858.40;;;15.70
65823;BMP180;52585;47.566;19.056;2022-09-27T18:26:29;98864.60;;;15.70
65823;BMP180;52585;47.566;19.056;2022-09-27T18:29:09;98874.00;;;15.70
65823;BMP180;52585;47.566;19.056;2022-09-27T18:31:35;98882.40;;;15.70
65823;BMP180;52585;47.566;19.056;2022-09-27T18:34:02;98887.00;;;15.70
65823;BMP180;52585;47.566;19.056;2022-09-27T18:36:28;98888.80;;;15.70
65823;BMP180;52585;47.566;19.056;2022-09-27T18:38:57;98892.60;;;15.70
65823;BMP180;52585;47.566;19.056;2022-09-27T18:41:26;98899.60;;;15.70
65823;BMP180;52585;47.566;19.056;2022-09-27T18:43:55;98905.20;;;15.70
65823;BMP180;52585;47.566;19.056;2022-09-27T18:46:33;98902.00;;;15.70
65823;BMP180;52585;47.566;19.056;2022-09-27T18:49:00;98894.80;;;15.70
65823;BMP180;52585;47.566;19.056;2022-09-27T18:51:28;98892.60;;;15.70
65823;BMP180;52585;47.566;19.056;2022-09-27T18:54:01;98888.60;;;15.70
65823;BMP180;52585;47.566;19.056;2022-09-27T18:56:28;98891.40;;;15.70
65823;BMP180;52585;47.566;19.056;2022-09-27T18:58:57;98889.40;;;15.66
65823;BMP180;52585;47.566;19.056;2022-09-27T19:01:24;98889.00;;;15.70
65823;BMP180;52585;47.566;19.056;2022-09-27T19:03:50;98901.60;;;15.70